CSCL Dalian — VRBH4 — position and weather

sailwx.info

Track history (hours):
 
Tides and Currents Weather Stations Pressure Air Temp Water Temp Dewpoint Dewpoint Depression Visibility Wind Speed Wind Dir Waves Ship Positions

CSCL Dalian

Last reported at 2015-Jun-24 23:21 UTC. Time now 2015-Jul-05 09:29 UTC.
Position N 31°23' W 117°27'.
Warning: this ship's position is 10 days out of date.

Length 259.8 m; ; draft 11 m.

Type: Cargo ship. MMSI: 477014600.

Date/timePositionNaut miles runAvg speedWind from/ knotsBaromVisibWave heightAir tempDewpointWater temp
2015-Jun-24 23:21N 31°23' W 117°27'1619.1
2015-Jun-24 22:30N 31°38' W 117°33'3618.6
2015-Jun-24 20:33N 32°12' W 117°48'1615.7
2015-Jun-24 19:33N 32°27' W 117°55'1817.9
2015-Jun-24 18:33N 32°44' W 118°01'1817.9
2015-Jun-24 17:33N 33°02' W 118°04'1312.4
2015-Jun-24 16:33N 33°14' W 118°06'1111.5
2015-Jun-24 15:33N 33°25' W 118°09'1111.4
2015-Jun-24 14:33N 33°36' W 118°13'8 7.7
2015-Jun-24 13:33N 33°44' W 118°16'1 0.4
2015-Jun-24 12:18N 33°44' W 118°15'0 0.0
2015-Jun-24 11:33N 33°44' W 118°15'0 0.0
2015-Jun-24 09:33N 33°44' W 118°15'0 0.0
2015-Jun-24 08:33N 33°44' W 118°15'0 0.0
2015-Jun-24 07:33N 33°44' W 118°15'0 0.0
2015-Jun-24 06:33N 33°44' W 118°15'0 0.0
2015-Jun-24 05:33N 33°44' W 118°15'0 0.0
2015-Jun-24 04:33N 33°44' W 118°15'0 0.0
2015-Jun-24 03:33N 33°44' W 118°15'0 0.0
2015-Jun-24 02:33N 33°44' W 118°15'0 0.0
2015-Jun-24 01:33N 33°44' W 118°15'0 0.0
2015-Jun-24 00:33N 33°44' W 118°15'0 0.0
2015-Jun-23 23:33N 33°44' W 118°15'0 0.0
2015-Jun-23 22:33N 33°44' W 118°15'0 0.0
2015-Jun-23 21:33N 33°44' W 118°15'0 0.0
2015-Jun-23 20:27N 33°44' W 118°15'0 0.0
2015-Jun-23 19:33N 33°44' W 118°15'3 0.1
2015-Jun-22 19:31N 33°43' W 118°12'0 0.0
2015-Jun-22 18:31N 33°43' W 118°12'0 0.0
2015-Jun-22 17:28N 33°43' W 118°12'0 0.0
2015-Jun-22 16:31N 33°43' W 118°12'0 0.0
2015-Jun-22 15:28N 33°43' W 118°12'0 0.1
2015-Jun-22 14:31N 33°43' W 118°12'0 0.4
2015-Jun-22 13:33N 33°42' W 118°12'5 5.1
2015-Jun-22 12:33N 33°37' W 118°13'9 9.0
2015-Jun-22 11:33N 33°37' W 118°24'1211.7
2015-Jun-22 10:33N 33°43' W 118°36'1211.6
2015-Jun-22 09:33N 33°49' W 118°48'1211.5
2015-Jun-22 08:33N 33°55' W 118°60'1211.8
2015-Jun-22 07:33N 34°01' W 119°12'1717.2
2015-Jun-22 06:33N 34°06' W 119°32'2319.3
2015-Jun-22 05:23N 34°12' W 119°58'2419.0
2015-Jun-22 04:06N 34°19' W 120°27'1118.7
2015-Jun-22 03:32N 34°21' W 120°39'1818.9
2015-Jun-22 02:33N 34°28' W 120°60'1413.8
2015-Jun-22 01:33N 34°39' W 121°11'1818.5
2015-Jun-22 00:33N 34°54' W 121°23'1818.3
2015-Jun-21 23:33N 35°09' W 121°36'1818.2
2015-Jun-21 22:33N 35°24' W 121°49'1918.6
2015-Jun-21 21:34N 35°39' W 122°02'1918.7
2015-Jun-21 20:33N 35°54' W 122°15'1818.0
2015-Jun-21 19:33N 36°10' W 122°26'1818.3
2015-Jun-21 18:33N 36°27' W 122°35'1818.4
2015-Jun-21 17:33N 36°45' W 122°41'1818.4
2015-Jun-21 16:33N 37°03' W 122°42'1918.5
2015-Jun-21 15:33N 37°22' W 122°44'1818.4
2015-Jun-21 14:33N 37°40' W 122°43'1414.5
2015-Jun-21 13:33N 37°49' W 122°29'8 7.7
2015-Jun-21 12:33N 37°49' W 122°19'0 0.0
2015-Jun-21 11:33N 37°49' W 122°19'0 0.0
2015-Jun-21 10:30N 37°49' W 122°19'0 0.0
2015-Jun-21 09:33N 37°49' W 122°19'0 0.0
2015-Jun-21 08:33N 37°49' W 122°19'0 0.0
2015-Jun-21 07:33N 37°49' W 122°19'0 0.0
2015-Jun-21 06:30N 37°49' W 122°19'0 0.0
2015-Jun-21 05:33N 37°49' W 122°19'0 0.0
2015-Jun-21 04:33N 37°49' W 122°19'0 0.0
2015-Jun-21 03:33N 37°49' W 122°19'0 0.0
2015-Jun-21 02:33N 37°49' W 122°19'0 0.0
2015-Jun-21 01:30N 37°49' W 122°19'0 0.0
2015-Jun-21 00:30N 37°49' W 122°19'0 0.0
2015-Jun-20 23:33N 37°49' W 122°19'0 0.0
2015-Jun-20 22:33N 37°49' W 122°19'0 0.0
2015-Jun-20 21:30N 37°49' W 122°19'0 0.0
2015-Jun-20 20:33N 37°49' W 122°19'0 0.0
2015-Jun-20 19:33N 37°49' W 122°19'0 0.0
2015-Jun-20 18:33N 37°49' W 122°19'0 0.0
2015-Jun-20 17:30N 37°49' W 122°19'0 0.0
2015-Jun-20 16:33N 37°49' W 122°19'0 0.0
2015-Jun-20 15:33N 37°49' W 122°19'0 0.0
2015-Jun-20 14:33N 37°49' W 122°19'0 0.0
2015-Jun-20 13:33N 37°49' W 122°19'0 0.0
2015-Jun-20 12:33N 37°49' W 122°19'0 0.0
2015-Jun-20 11:33N 37°49' W 122°19'0 0.0
2015-Jun-20 10:33N 37°49' W 122°19'0 0.0
2015-Jun-20 09:33N 37°49' W 122°19'0 0.0
2015-Jun-20 08:33N 37°49' W 122°19'0 0.0
2015-Jun-20 07:33N 37°49' W 122°19'0 0.0
2015-Jun-20 06:33N 37°49' W 122°19'0 0.0
2015-Jun-20 05:33N 37°49' W 122°19'0 0.0
2015-Jun-20 04:33N 37°49' W 122°19'0 0.0
2015-Jun-20 03:33N 37°49' W 122°19'0 0.0
2015-Jun-20 02:30N 37°49' W 122°19'0 0.0
2015-Jun-20 01:33N 37°49' W 122°19'0 0.0
2015-Jun-20 00:33N 37°49' W 122°19'0 0.0
2015-Jun-19 23:33N 37°49' W 122°19'0 0.0
2015-Jun-19 22:33N 37°49' W 122°19'0 0.0
2015-Jun-19 21:33N 37°49' W 122°19'0 0.0
2015-Jun-19 20:33N 37°49' W 122°19'0 0.0
2015-Jun-19 19:33N 37°49' W 122°19'0 0.0
2015-Jun-19 18:33N 37°49' W 122°19'0 0.0
2015-Jun-19 17:33N 37°49' W 122°19'0 0.0
2015-Jun-19 16:33N 37°49' W 122°19'0 0.0
2015-Jun-19 15:33N 37°49' W 122°19'0 0.0
2015-Jun-19 14:32N 37°49' W 122°19'0 0.0
2015-Jun-19 13:33N 37°49' W 122°19'3 3.4
2015-Jun-19 12:33N 37°46' W 122°21'0 0.1
2015-Jun-19 11:33N 37°46' W 122°21'2 2.2
2015-Jun-19 10:33N 37°43' W 122°21'1 1.0
2015-Jun-19 09:33N 37°43' W 122°20'0 0.1
2015-Jun-19 08:33N 37°43' W 122°20'0 0.0
2015-Jun-19 07:27N 37°43' W 122°20'0 0.0
2015-Jun-19 06:30N 37°43' W 122°20'0 0.0
2015-Jun-19 05:33N 37°43' W 122°20'0 0.1
2015-Jun-19 04:33N 37°43' W 122°20'0 0.2
2015-Jun-19 03:33N 37°43' W 122°20'0 0.1
2015-Jun-19 02:33N 37°43' W 122°20'0 0.0
2015-Jun-19 01:33N 37°43' W 122°20'0 0.0
2015-Jun-19 00:33N 37°43' W 122°20'0 0.1
2015-Jun-18 23:33N 37°43' W 122°20'0 0.1
2015-Jun-18 22:33N 37°43' W 122°20'0 0.1
2015-Jun-18 21:27N 37°43' W 122°20'0 0.0
2015-Jun-18 20:33N 37°43' W 122°20'0 0.0
2015-Jun-18 19:33N 37°43' W 122°20'0 0.0
2015-Jun-18 18:33N 37°43' W 122°20'0 0.0
2015-Jun-18 17:33N 37°43' W 122°20'0 0.1
2015-Jun-18 16:33N 37°43' W 122°20'0 0.3
2015-Jun-18 15:33N 37°43' W 122°20'0 0.0
2015-Jun-18 14:33N 37°43' W 122°20'0 0.0
2015-Jun-18 13:33N 37°43' W 122°20'0 0.0
2015-Jun-18 12:33N 37°43' W 122°20'0 0.0
2015-Jun-18 11:33N 37°43' W 122°20'0 0.0
2015-Jun-18 10:33N 37°43' W 122°20'0 0.0
2015-Jun-18 09:33N 37°43' W 122°20'0 0.2
2015-Jun-18 08:33N 37°43' W 122°20'0 0.0
2015-Jun-18 07:21N 37°43' W 122°20'0 0.0
2015-Jun-18 05:33N 37°43' W 122°20'0 0.0
2015-Jun-18 04:27N 37°43' W 122°20'0 0.1
2015-Jun-18 03:33N 37°43' W 122°20'0 0.2
2015-Jun-18 02:33N 37°43' W 122°20'0 0.0
2015-Jun-18 01:33N 37°43' W 122°20'0 0.0
2015-Jun-18 00:33N 37°43' W 122°20'0 0.0
2015-Jun-17 23:33N 37°43' W 122°20'0 0.2
2015-Jun-17 22:33N 37°43' W 122°20'0 0.2
2015-Jun-17 21:33N 37°43' W 122°20'0 0.0
2015-Jun-17 20:24N 37°43' W 122°20'0 0.1
2015-Jun-17 19:33N 37°43' W 122°20'0 0.0
2015-Jun-17 18:30N 37°43' W 122°20'0 0.1
2015-Jun-17 17:33N 37°43' W 122°20'0 0.0
2015-Jun-17 16:33N 37°43' W 122°20'0 0.2
2015-Jun-17 15:33N 37°43' W 122°20'0 0.1
2015-Jun-17 14:33N 37°43' W 122°20'0 0.0
2015-Jun-17 13:33N 37°43' W 122°20'0 0.0
2015-Jun-17 12:33N 37°43' W 122°20'0 0.0
2015-Jun-17 11:33N 37°43' W 122°20'0 0.0
2015-Jun-17 10:33N 37°43' W 122°20'0 0.0
2015-Jun-17 09:33N 37°43' W 122°20'0 0.1
2015-Jun-17 08:33N 37°43' W 122°20'0 0.2
2015-Jun-17 07:33N 37°43' W 122°20'0 0.1
2015-Jun-17 06:33N 37°43' W 122°20'0 0.0
2015-Jun-17 05:33N 37°43' W 122°20'0 0.0
2015-Jun-17 04:33N 37°43' W 122°20'0 0.1
2015-Jun-17 03:33N 37°43' W 122°20'0 0.1
2015-Jun-17 02:33N 37°43' W 122°20'0 0.2
2015-Jun-17 01:33N 37°43' W 122°20'0 0.0
2015-Jun-17 00:27N 37°43' W 122°20'1 1.1
2015-Jun-16 23:33N 37°44' W 122°21'9 8.9
2015-Jun-16 22:33N 37°48' W 122°31'1211.8
2015-Jun-16 21:33N 37°46' W 122°45'7 7.1
2015-Jun-16 20:33N 37°49' W 122°53'8 8.0
2015-Jun-16 19:33N 37°53' W 123°02'9 8.6
2015-Jun-16 18:33N 37°57' W 123°11'8 8.5
2015-Jun-16 17:33N 38°04' W 123°18'9 8.5
2015-Jun-16 16:33N 38°10' W 123°25'7 7.1
2015-Jun-16 15:33N 38°16' W 123°30'1010.5
2015-Jun-16 14:33N 38°24' W 123°39'1211.6
2015-Jun-16 13:33N 38°33' W 123°49'1211.7
2015-Jun-16 12:33N 38°43' W 123°57'1211.8
2015-Jun-16 11:31N 38°52' W 124°07'1212.1
2015-Jun-16 10:33N 39°01' W 124°16'2612.2
2015-Jun-16 08:27N 39°21' W 124°37'1112.3
2015-Jun-16 07:32N 39°31' W 124°46'28211.6
2015-Jun-15 07:13N 44°11' W 125°16'1311.8
2015-Jun-15 06:07N 44°24' W 125°16'711.7
2015-Jun-15 05:33N 44°31' W 125°16'1311.6
2015-Jun-15 04:28N 44°44' W 125°16'2211.5
2015-Jun-15 02:33N 45°05' W 125°16'1211.8
2015-Jun-15 01:33N 45°17' W 125°15'1211.8
2015-Jun-15 00:33N 45°29' W 125°16'1211.9
2015-Jun-14 23:33N 45°41' W 125°16'  
Track history (hours):
 
Tides and Currents Weather Stations Pressure Air Temp Water Temp Dewpoint Dewpoint Depression Visibility Wind Speed Wind Dir Waves Ship Positions

CSCL Dalian

Last reported at 2015-Jun-24 23:21 UTC. Time now 2015-Jul-05 09:29 UTC.
Position N 31°23' W 117°27'.
Warning: this ship's position is 10 days out of date.

Length 259.8 m; ; draft 11 m.

Type: Cargo ship. MMSI: 477014600.

Date/timePositionNaut miles runAvg speedWind from/ knotsBaromVisibWave heightAir tempDewpointWater temp
2015-Jun-24 23:21N 31°23' W 117°27'1619.1
2015-Jun-24 22:30N 31°38' W 117°33'3618.6
2015-Jun-24 20:33N 32°12' W 117°48'1615.7
2015-Jun-24 19:33N 32°27' W 117°55'1817.9
2015-Jun-24 18:33N 32°44' W 118°01'1817.9
2015-Jun-24 17:33N 33°02' W 118°04'1312.4
2015-Jun-24 16:33N 33°14' W 118°06'1111.5
2015-Jun-24 15:33N 33°25' W 118°09'1111.4
2015-Jun-24 14:33N 33°36' W 118°13'8 7.7
2015-Jun-24 13:33N 33°44' W 118°16'1 0.4
2015-Jun-24 12:18N 33°44' W 118°15'0 0.0
2015-Jun-24 11:33N 33°44' W 118°15'0 0.0
2015-Jun-24 09:33N 33°44' W 118°15'0 0.0
2015-Jun-24 08:33N 33°44' W 118°15'0 0.0
2015-Jun-24 07:33N 33°44' W 118°15'0 0.0
2015-Jun-24 06:33N 33°44' W 118°15'0 0.0
2015-Jun-24 05:33N 33°44' W 118°15'0 0.0
2015-Jun-24 04:33N 33°44' W 118°15'0 0.0
2015-Jun-24 03:33N 33°44' W 118°15'0 0.0
2015-Jun-24 02:33N 33°44' W 118°15'0 0.0
2015-Jun-24 01:33N 33°44' W 118°15'0 0.0
2015-Jun-24 00:33N 33°44' W 118°15'0 0.0
2015-Jun-23 23:33N 33°44' W 118°15'0 0.0
2015-Jun-23 22:33N 33°44' W 118°15'0 0.0
2015-Jun-23 21:33N 33°44' W 118°15'0 0.0
2015-Jun-23 20:27N 33°44' W 118°15'0 0.0
2015-Jun-23 19:33N 33°44' W 118°15'3 0.1
2015-Jun-22 19:31N 33°43' W 118°12'0 0.0
2015-Jun-22 18:31N 33°43' W 118°12'0 0.0
2015-Jun-22 17:28N 33°43' W 118°12'0 0.0
2015-Jun-22 16:31N 33°43' W 118°12'0 0.0
2015-Jun-22 15:28N 33°43' W 118°12'0 0.1
2015-Jun-22 14:31N 33°43' W 118°12'0 0.4
2015-Jun-22 13:33N 33°42' W 118°12'5 5.1
2015-Jun-22 12:33N 33°37' W 118°13'9 9.0
2015-Jun-22 11:33N 33°37' W 118°24'1211.7
2015-Jun-22 10:33N 33°43' W 118°36'1211.6
2015-Jun-22 09:33N 33°49' W 118°48'1211.5
2015-Jun-22 08:33N 33°55' W 118°60'1211.8
2015-Jun-22 07:33N 34°01' W 119°12'1717.2
2015-Jun-22 06:33N 34°06' W 119°32'2319.3
2015-Jun-22 05:23N 34°12' W 119°58'2419.0
2015-Jun-22 04:06N 34°19' W 120°27'1118.7
2015-Jun-22 03:32N 34°21' W 120°39'1818.9
2015-Jun-22 02:33N 34°28' W 120°60'1413.8
2015-Jun-22 01:33N 34°39' W 121°11'1818.5
2015-Jun-22 00:33N 34°54' W 121°23'1818.3
2015-Jun-21 23:33N 35°09' W 121°36'1818.2
2015-Jun-21 22:33N 35°24' W 121°49'1918.6
2015-Jun-21 21:34N 35°39' W 122°02'1918.7
2015-Jun-21 20:33N 35°54' W 122°15'1818.0
2015-Jun-21 19:33N 36°10' W 122°26'1818.3
2015-Jun-21 18:33N 36°27' W 122°35'1818.4
2015-Jun-21 17:33N 36°45' W 122°41'1818.4
2015-Jun-21 16:33N 37°03' W 122°42'1918.5
2015-Jun-21 15:33N 37°22' W 122°44'1818.4
2015-Jun-21 14:33N 37°40' W 122°43'1414.5
2015-Jun-21 13:33N 37°49' W 122°29'8 7.7
2015-Jun-21 12:33N 37°49' W 122°19'0 0.0
2015-Jun-21 11:33N 37°49' W 122°19'0 0.0
2015-Jun-21 10:30N 37°49' W 122°19'0 0.0
2015-Jun-21 09:33N 37°49' W 122°19'0 0.0
2015-Jun-21 08:33N 37°49' W 122°19'0 0.0
2015-Jun-21 07:33N 37°49' W 122°19'0 0.0
2015-Jun-21 06:30N 37°49' W 122°19'0 0.0
2015-Jun-21 05:33N 37°49' W 122°19'0 0.0
2015-Jun-21 04:33N 37°49' W 122°19'0 0.0
2015-Jun-21 03:33N 37°49' W 122°19'0 0.0
2015-Jun-21 02:33N 37°49' W 122°19'0 0.0
2015-Jun-21 01:30N 37°49' W 122°19'0 0.0
2015-Jun-21 00:30N 37°49' W 122°19'0 0.0
2015-Jun-20 23:33N 37°49' W 122°19'0 0.0
2015-Jun-20 22:33N 37°49' W 122°19'0 0.0
2015-Jun-20 21:30N 37°49' W 122°19'0 0.0
2015-Jun-20 20:33N 37°49' W 122°19'0 0.0
2015-Jun-20 19:33N 37°49' W 122°19'0 0.0
2015-Jun-20 18:33N 37°49' W 122°19'0 0.0
2015-Jun-20 17:30N 37°49' W 122°19'0 0.0
2015-Jun-20 16:33N 37°49' W 122°19'0 0.0
2015-Jun-20 15:33N 37°49' W 122°19'0 0.0
2015-Jun-20 14:33N 37°49' W 122°19'0 0.0
2015-Jun-20 13:33N 37°49' W 122°19'0 0.0
2015-Jun-20 12:33N 37°49' W 122°19'0 0.0
2015-Jun-20 11:33N 37°49' W 122°19'0 0.0
2015-Jun-20 10:33N 37°49' W 122°19'0 0.0
2015-Jun-20 09:33N 37°49' W 122°19'0 0.0
2015-Jun-20 08:33N 37°49' W 122°19'0 0.0
2015-Jun-20 07:33N 37°49' W 122°19'0 0.0
2015-Jun-20 06:33N 37°49' W 122°19'0 0.0
2015-Jun-20 05:33N 37°49' W 122°19'0 0.0
2015-Jun-20 04:33N 37°49' W 122°19'0 0.0
2015-Jun-20 03:33N 37°49' W 122°19'0 0.0
2015-Jun-20 02:30N 37°49' W 122°19'0 0.0
2015-Jun-20 01:33N 37°49' W 122°19'0 0.0
2015-Jun-20 00:33N 37°49' W 122°19'0 0.0
2015-Jun-19 23:33N 37°49' W 122°19'0 0.0
2015-Jun-19 22:33N 37°49' W 122°19'0 0.0
2015-Jun-19 21:33N 37°49' W 122°19'0 0.0
2015-Jun-19 20:33N 37°49' W 122°19'0 0.0
2015-Jun-19 19:33N 37°49' W 122°19'0 0.0
2015-Jun-19 18:33N 37°49' W 122°19'0 0.0
2015-Jun-19 17:33N 37°49' W 122°19'0 0.0
2015-Jun-19 16:33N 37°49' W 122°19'0 0.0
2015-Jun-19 15:33N 37°49' W 122°19'0 0.0
2015-Jun-19 14:32N 37°49' W 122°19'0 0.0
2015-Jun-19 13:33N 37°49' W 122°19'3 3.4
2015-Jun-19 12:33N 37°46' W 122°21'0 0.1
2015-Jun-19 11:33N 37°46' W 122°21'2 2.2
2015-Jun-19 10:33N 37°43' W 122°21'1 1.0
2015-Jun-19 09:33N 37°43' W 122°20'0 0.1
2015-Jun-19 08:33N 37°43' W 122°20'0 0.0
2015-Jun-19 07:27N 37°43' W 122°20'0 0.0
2015-Jun-19 06:30N 37°43' W 122°20'0 0.0
2015-Jun-19 05:33N 37°43' W 122°20'0 0.1
2015-Jun-19 04:33N 37°43' W 122°20'0 0.2
2015-Jun-19 03:33N 37°43' W 122°20'0 0.1
2015-Jun-19 02:33N 37°43' W 122°20'0 0.0
2015-Jun-19 01:33N 37°43' W 122°20'0 0.0
2015-Jun-19 00:33N 37°43' W 122°20'0 0.1
2015-Jun-18 23:33N 37°43' W 122°20'0 0.1
2015-Jun-18 22:33N 37°43' W 122°20'0 0.1
2015-Jun-18 21:27N 37°43' W 122°20'0 0.0
2015-Jun-18 20:33N 37°43' W 122°20'0 0.0
2015-Jun-18 19:33N 37°43' W 122°20'0 0.0
2015-Jun-18 18:33N 37°43' W 122°20'0 0.0
2015-Jun-18 17:33N 37°43' W 122°20'0 0.1
2015-Jun-18 16:33N 37°43' W 122°20'0 0.3
2015-Jun-18 15:33N 37°43' W 122°20'0 0.0
2015-Jun-18 14:33N 37°43' W 122°20'0 0.0
2015-Jun-18 13:33N 37°43' W 122°20'0 0.0
2015-Jun-18 12:33N 37°43' W 122°20'0 0.0
2015-Jun-18 11:33N 37°43' W 122°20'0 0.0
2015-Jun-18 10:33N 37°43' W 122°20'0 0.0
2015-Jun-18 09:33N 37°43' W 122°20'0 0.2
2015-Jun-18 08:33N 37°43' W 122°20'0 0.0
2015-Jun-18 07:21N 37°43' W 122°20'0 0.0
2015-Jun-18 05:33N 37°43' W 122°20'0 0.0
2015-Jun-18 04:27N 37°43' W 122°20'0 0.1
2015-Jun-18 03:33N 37°43' W 122°20'0 0.2
2015-Jun-18 02:33N 37°43' W 122°20'0 0.0
2015-Jun-18 01:33N 37°43' W 122°20'0 0.0
2015-Jun-18 00:33N 37°43' W 122°20'0 0.0
2015-Jun-17 23:33N 37°43' W 122°20'0 0.2
2015-Jun-17 22:33N 37°43' W 122°20'0 0.2
2015-Jun-17 21:33N 37°43' W 122°20'0 0.0
2015-Jun-17 20:24N 37°43' W 122°20'0 0.1
2015-Jun-17 19:33N 37°43' W 122°20'0 0.0
2015-Jun-17 18:30N 37°43' W 122°20'0 0.1
2015-Jun-17 17:33N 37°43' W 122°20'0 0.0
2015-Jun-17 16:33N 37°43' W 122°20'0 0.2
2015-Jun-17 15:33N 37°43' W 122°20'0 0.1
2015-Jun-17 14:33N 37°43' W 122°20'0 0.0
2015-Jun-17 13:33N 37°43' W 122°20'0 0.0
2015-Jun-17 12:33N 37°43' W 122°20'0 0.0
2015-Jun-17 11:33N 37°43' W 122°20'0 0.0
2015-Jun-17 10:33N 37°43' W 122°20'0 0.0
2015-Jun-17 09:33N 37°43' W 122°20'0 0.1
2015-Jun-17 08:33N 37°43' W 122°20'0 0.2
2015-Jun-17 07:33N 37°43' W 122°20'0 0.1
2015-Jun-17 06:33N 37°43' W 122°20'0 0.0
2015-Jun-17 05:33N 37°43' W 122°20'0 0.0
2015-Jun-17 04:33N 37°43' W 122°20'0 0.1
2015-Jun-17 03:33N 37°43' W 122°20'0 0.1
2015-Jun-17 02:33N 37°43' W 122°20'0 0.2
2015-Jun-17 01:33N 37°43' W 122°20'0 0.0
2015-Jun-17 00:27N 37°43' W 122°20'1 1.1
2015-Jun-16 23:33N 37°44' W 122°21'9 8.9
2015-Jun-16 22:33N 37°48' W 122°31'1211.8
2015-Jun-16 21:33N 37°46' W 122°45'7 7.1
2015-Jun-16 20:33N 37°49' W 122°53'8 8.0
2015-Jun-16 19:33N 37°53' W 123°02'9 8.6
2015-Jun-16 18:33N 37°57' W 123°11'8 8.5
2015-Jun-16 17:33N 38°04' W 123°18'9 8.5
2015-Jun-16 16:33N 38°10' W 123°25'7 7.1
2015-Jun-16 15:33N 38°16' W 123°30'1010.5
2015-Jun-16 14:33N 38°24' W 123°39'1211.6
2015-Jun-16 13:33N 38°33' W 123°49'1211.7
2015-Jun-16 12:33N 38°43' W 123°57'1211.8
2015-Jun-16 11:31N 38°52' W 124°07'1212.1
2015-Jun-16 10:33N 39°01' W 124°16'2612.2
2015-Jun-16 08:27N 39°21' W 124°37'1112.3
2015-Jun-16 07:32N 39°31' W 124°46'28211.6
2015-Jun-15 07:13N 44°11' W 125°16'1311.8
2015-Jun-15 06:07N 44°24' W 125°16'711.7
2015-Jun-15 05:33N 44°31' W 125°16'1311.6
2015-Jun-15 04:28N 44°44' W 125°16'2211.5
2015-Jun-15 02:33N 45°05' W 125°16'1211.8
2015-Jun-15 01:33N 45°17' W 125°15'1211.8
2015-Jun-15 00:33N 45°29' W 125°16'1211.9
2015-Jun-14 23:33N 45°41' W 125°16'  

Dump ship's entire track history